Champion, Ohio
Current Conditions -  °F | °C
As of 7:51 PM on Wednesday 22 Oct 2014 (Local Time) from KYNG Reporting Station
Scattered Clouds Scattered Clouds  
Wind Chill: 39°   Ceiling: Unl
Heat Index: 43°   Visibility: 10mi
Dew Point: 40°   Wind: 7mph
Humidity: 89%   Direction: 350°N
Pressure: 30.21"   Gusts: NA
Location:  41.2735°N, 80.8217°W
Report Text: KYNG 222351Z 35006KT 10SM SCT017 06/04 A3021 RMK AO2 SLP237 T00610044 10111 20061 55000
Loading
Personal Weather Stations






























Interactive Weather Map
Tropical Storm Tracking
New forecast layout! Learn more

10-Day Weather Forecast

Advertisements
Track Severe Weather on mobile